sensor_id;sensor_type;location;lat;lon;timestamp;pressure;altitude;pressure_sealevel;temperature;humidity
71195;BME280;58908;51.426;7.714;2023-03-01T00:01:17;101203.59;;;-2.92;100.00
71195;BME280;58908;51.426;7.714;2023-03-01T00:03:44;101202.75;;;-2.91;100.00
71195;BME280;58908;51.426;7.714;2023-03-01T00:06:11;101198.63;;;-2.83;100.00
71195;BME280;58908;51.426;7.714;2023-03-01T00:08:38;101197.22;;;-3.11;100.00
71195;BME280;58908;51.426;7.714;2023-03-01T00:11:05;101187.41;;;-3.28;100.00
71195;BME280;58908;51.426;7.714;2023-03-01T00:13:32;101185.47;;;-3.38;100.00
71195;BME280;58908;51.426;7.714;2023-03-01T00:16:00;101190.56;;;-3.41;100.00
71195;BME280;58908;51.426;7.714;2023-03-01T00:18:27;101181.66;;;-3.55;100.00
71195;BME280;58908;51.426;7.714;2023-03-01T00:20:54;101190.25;;;-3.55;100.00
71195;BME280;58908;51.426;7.714;2023-03-01T00:23:22;101178.38;;;-3.48;100.00
71195;BME280;58908;51.426;7.714;2023-03-01T00:25:48;101182.47;;;-3.56;100.00
71195;BME280;58908;51.426;7.714;2023-03-01T00:28:15;101183.41;;;-3.53;100.00
71195;BME280;58908;51.426;7.714;2023-03-01T00:30:42;101182.25;;;-3.67;100.00
71195;BME280;58908;51.426;7.714;2023-03-01T00:33:08;101181.56;;;-3.60;100.00
71195;BME280;58908;51.426;7.714;2023-03-01T00:35:34;101187.19;;;-3.77;100.00
71195;BME280;58908;51.426;7.714;2023-03-01T00:38:01;101179.94;;;-3.93;100.00
71195;BME280;58908;51.426;7.714;2023-03-01T00:40:31;101184.97;;;-3.98;100.00
71195;BME280;58908;51.426;7.714;2023-03-01T00:42:57;101174.38;;;-4.10;100.00
71195;BME280;58908;51.426;7.714;2023-03-01T00:45:24;101181.81;;;-4.22;100.00
71195;BME280;58908;51.426;7.714;2023-03-01T00:47:50;101178.06;;;-4.34;100.00
71195;BME280;58908;51.426;7.714;2023-03-01T00:50:17;101175.19;;;-4.46;100.00
71195;BME280;58908;51.426;7.714;2023-03-01T00:52:44;101173.38;;;-4.50;100.00
71195;BME280;58908;51.426;7.714;2023-03-01T00:55:10;101170.75;;;-4.52;100.00
71195;BME280;58908;51.426;7.714;2023-03-01T00:57:38;101164.69;;;-4.54;100.00
71195;BME280;58908;51.426;7.714;2023-03-01T01:00:08;101159.41;;;-4.60;100.00
71195;BME280;58908;51.426;7.714;2023-03-01T01:02:36;101160.84;;;-4.70;100.00
71195;BME280;58908;51.426;7.714;2023-03-01T01:05:03;101163.41;;;-4.70;100.00
71195;BME280;58908;51.426;7.714;2023-03-01T01:07:29;101159.09;;;-4.71;100.00
71195;BME280;58908;51.426;7.714;2023-03-01T01:09:56;101156.41;;;-4.76;100.00
71195;BME280;58908;51.426;7.714;2023-03-01T01:12:22;101148.66;;;-4.77;100.00
71195;BME280;58908;51.426;7.714;2023-03-01T01:14:50;101139.97;;;-4.81;100.00
71195;BME280;58908;51.426;7.714;2023-03-01T01:17:19;101137.28;;;-4.85;100.00
71195;BME280;58908;51.426;7.714;2023-03-01T01:19:45;101138.22;;;-4.82;100.00
71195;BME280;58908;51.426;7.714;2023-03-01T01:22:12;101146.72;;;-4.84;100.00
71195;BME280;58908;51.426;7.714;2023-03-01T01:24:38;101147.31;;;-4.94;100.00
71195;BME280;58908;51.426;7.714;2023-03-01T01:27:04;101142.22;;;-4.93;100.00
71195;BME280;58908;51.426;7.714;2023-03-01T01:29:32;101137.84;;;-4.95;100.00
71195;BME280;58908;51.426;7.714;2023-03-01T01:31:59;101134.31;;;-5.00;100.00
71195;BME280;58908;51.426;7.714;2023-03-01T01:34:25;101143.94;;;-4.93;100.00
71195;BME280;58908;51.426;7.714;2023-03-01T01:36:52;101143.38;;;-4.82;100.00
71195;BME280;58908;51.426;7.714;2023-03-01T01:39:19;101142.53;;;-4.82;100.00
71195;BME280;58908;51.426;7.714;2023-03-01T01:41:45;101150.00;;;-4.90;100.00
71195;BME280;58908;51.426;7.714;2023-03-01T01:44:13;101149.94;;;-4.93;100.00
71195;BME280;58908;51.426;7.714;2023-03-01T01:46:40;101141.31;;;-4.95;100.00
71195;BME280;58908;51.426;7.714;2023-03-01T01:49:11;101146.53;;;-4.92;100.00
71195;BME280;58908;51.426;7.714;2023-03-01T01:51:40;101144.53;;;-5.02;100.00
71195;BME280;58908;51.426;7.714;2023-03-01T01:54:09;101137.47;;;-5.10;100.00
71195;BME280;58908;51.426;7.714;2023-03-01T01:56:36;101124.34;;;-5.19;100.00
71195;BME280;58908;51.426;7.714;2023-03-01T01:59:02;101136.22;;;-5.24;100.00
71195;BME280;58908;51.426;7.714;2023-03-01T02:01:29;101127.63;;;-5.25;100.00
71195;BME280;58908;51.426;7.714;2023-03-01T02:03:55;101113.34;;;-5.15;100.00
71195;BME280;58908;51.426;7.714;2023-03-01T02:06:24;101110.97;;;-5.06;100.00
71195;BME280;58908;51.426;7.714;2023-03-01T02:08:54;101106.56;;;-5.12;100.00
71195;BME280;58908;51.426;7.714;2023-03-01T02:11:25;101117.59;;;-4.83;100.00
71195;BME280;58908;51.426;7.714;2023-03-01T02:13:53;101112.38;;;-4.88;100.00
71195;BME280;58908;51.426;7.714;2023-03-01T02:16:20;101113.88;;;-4.94;100.00
71195;BME280;58908;51.426;7.714;2023-03-01T02:18:48;101109.44;;;-5.00;100.00
71195;BME280;58908;51.426;7.714;2023-03-01T02:21:19;101110.72;;;-5.17;100.00
71195;BME280;58908;51.426;7.714;2023-03-01T02:23:50;101107.13;;;-5.23;100.00
71195;BME280;58908;51.426;7.714;2023-03-01T02:26:18;101100.16;;;-5.27;100.00
71195;BME280;58908;51.426;7.714;2023-03-01T02:28:48;101105.03;;;-5.36;100.00
71195;BME280;58908;51.426;7.714;2023-03-01T02:31:16;101112.41;;;-5.48;100.00
71195;BME280;58908;51.426;7.714;2023-03-01T02:34:00;101107.16;;;-5.51;100.00
71195;BME280;58908;51.426;7.714;2023-03-01T02:36:30;101102.72;;;-5.58;100.00
71195;BME280;58908;51.426;7.714;2023-03-01T02:38:57;101107.72;;;-5.63;100.00
71195;BME280;58908;51.426;7.714;2023-03-01T02:41:25;101113.75;;;-5.61;100.00
71195;BME280;58908;51.426;7.714;2023-03-01T02:43:53;101111.31;;;-5.56;100.00
71195;BME280;58908;51.426;7.714;2023-03-01T02:46:21;101113.25;;;-5.49;100.00
71195;BME280;58908;51.426;7.714;2023-03-01T02:48:48;101112.41;;;-5.48;100.00
71195;BME280;58908;51.426;7.714;2023-03-01T02:51:18;101108.81;;;-5.55;100.00
71195;BME280;58908;51.426;7.714;2023-03-01T02:53:49;101106.53;;;-5.44;100.00
71195;BME280;58908;51.426;7.714;2023-03-01T02:56:19;101103.25;;;-5.39;100.00
71195;BME280;58908;51.426;7.714;2023-03-01T02:58:45;101090.22;;;-5.45;100.00
71195;BME280;58908;51.426;7.714;2023-03-01T03:01:17;101091.94;;;-5.45;100.00
71195;BME280;58908;51.426;7.714;2023-03-01T03:03:43;101096.13;;;-5.49;100.00
71195;BME280;58908;51.426;7.714;2023-03-01T03:06:10;101082.44;;;-5.48;100.00
71195;BME280;58908;51.426;7.714;2023-03-01T03:08:36;101087.41;;;-5.54;100.00
71195;BME280;58908;51.426;7.714;2023-03-01T03:11:02;101090.69;;;-5.59;100.00
71195;BME280;58908;51.426;7.714;2023-03-01T03:13:29;101088.00;;;-5.62;100.00
71195;BME280;58908;51.426;7.714;2023-03-01T03:15:57;101078.31;;;-5.72;100.00
71195;BME280;58908;51.426;7.714;2023-03-01T03:18:25;101085.03;;;-5.77;100.00
71195;BME280;58908;51.426;7.714;2023-03-01T03:20:51;101086.38;;;-5.90;100.00
71195;BME280;58908;51.426;7.714;2023-03-01T03:23:18;101091.38;;;-5.94;100.00
71195;BME280;58908;51.426;7.714;2023-03-01T03:25:47;101089.66;;;-5.95;100.00
71195;BME280;58908;51.426;7.714;2023-03-01T03:28:13;101085.25;;;-5.99;100.00
71195;BME280;58908;51.426;7.714;2023-03-01T03:30:43;101094.47;;;-6.06;100.00
71195;BME280;58908;51.426;7.714;2023-03-01T03:33:10;101093.50;;;-6.09;100.00
71195;BME280;58908;51.426;7.714;2023-03-01T03:35:41;101083.09;;;-6.14;100.00
71195;BME280;58908;51.426;7.714;2023-03-01T03:38:09;101083.16;;;-6.12;100.00
71195;BME280;58908;51.426;7.714;2023-03-01T03:40:41;101082.03;;;-6.20;100.00
71195;BME280;58908;51.426;7.714;2023-03-01T03:43:08;101074.19;;;-6.26;100.00
71195;BME280;58908;51.426;7.714;2023-03-01T03:45:35;101066.38;;;-6.29;100.00
71195;BME280;58908;51.426;7.714;2023-03-01T03:48:02;101058.63;;;-6.31;100.00
71195;BME280;58908;51.426;7.714;2023-03-01T03:50:29;101054.34;;;-6.32;100.00
71195;BME280;58908;51.426;7.714;2023-03-01T03:52:57;101045.75;;;-6.32;100.00
71195;BME280;58908;51.426;7.714;2023-03-01T03:55:23;101050.03;;;-6.33;100.00
71195;BME280;58908;51.426;7.714;2023-03-01T03:57:54;101049.97;;;-6.34;100.00
71195;BME280;58908;51.426;7.714;2023-03-01T04:00:31;101047.34;;;-6.36;100.00
71195;BME280;58908;51.426;7.714;2023-03-01T04:02:58;101056.75;;;-6.36;100.00
71195;BME280;58908;51.426;7.714;2023-03-01T04:05:24;101058.50;;;-6.35;100.00
71195;BME280;58908;51.426;7.714;2023-03-01T04:07:51;101057.22;;;-6.21;100.00
71195;BME280;58908;51.426;7.714;2023-03-01T04:10:27;101057.22;;;-6.21;100.00
71195;BME280;58908;51.426;7.714;2023-03-01T04:12:54;101065.66;;;-6.25;100.00
71195;BME280;58908;51.426;7.714;2023-03-01T04:15:22;101054.22;;;-6.35;100.00
71195;BME280;58908;51.426;7.714;2023-03-01T04:17:49;101059.19;;;-6.41;100.00
71195;BME280;58908;51.426;7.714;2023-03-01T04:20:17;101062.44;;;-6.46;100.00
71195;BME280;58908;51.426;7.714;2023-03-01T04:22:49;101071.78;;;-6.48;100.00
71195;BME280;58908;51.426;7.714;2023-03-01T04:25:16;101062.34;;;-6.49;100.00
71195;BME280;58908;51.426;7.714;2023-03-01T04:27:43;101063.28;;;-6.46;100.00
71195;BME280;58908;51.426;7.714;2023-03-01T04:30:10;101068.31;;;-6.49;100.00
71195;BME280;58908;51.426;7.714;2023-03-01T04:32:36;101054.50;;;-6.54;100.00
71195;BME280;58908;51.426;7.714;2023-03-01T04:35:02;101051.09;;;-6.53;100.00
71195;BME280;58908;51.426;7.714;2023-03-01T04:37:29;101053.31;;;-6.37;100.00
71195;BME280;58908;51.426;7.714;2023-03-01T04:39:55;101057.22;;;-6.49;100.00
71195;BME280;58908;51.426;7.714;2023-03-01T04:42:22;101056.03;;;-6.59;100.00
71195;BME280;58908;51.426;7.714;2023-03-01T04:44:50;101062.75;;;-6.62;100.00
71195;BME280;58908;51.426;7.714;2023-03-01T04:47:16;101065.38;;;-6.61;100.00
71195;BME280;58908;51.426;7.714;2023-03-01T04:49:42;101068.72;;;-6.63;100.00
71195;BME280;58908;51.426;7.714;2023-03-01T04:52:09;101069.91;;;-6.52;100.00
71195;BME280;58908;51.426;7.714;2023-03-01T04:54:35;101068.72;;;-6.63;100.00
71195;BME280;58908;51.426;7.714;2023-03-01T04:57:02;101066.94;;;-6.66;100.00
71195;BME280;58908;51.426;7.714;2023-03-01T04:59:28;101065.09;;;-6.70;100.00
71195;BME280;58908;51.426;7.714;2023-03-01T05:01:56;101071.03;;;-6.71;100.00
71195;BME280;58908;51.426;7.714;2023-03-01T05:04:25;101061.53;;;-6.75;100.00
71195;BME280;58908;51.426;7.714;2023-03-01T05:06:53;101066.88;;;-6.67;100.00
71195;BME280;58908;51.426;7.714;2023-03-01T05:09:20;101062.91;;;-6.58;100.00
71195;BME280;58908;51.426;7.714;2023-03-01T05:11:47;101063.44;;;-6.68;100.00
71195;BME280;58908;51.426;7.714;2023-03-01T05:14:13;101068.47;;;-6.71;100.00
71195;BME280;58908;51.426;7.714;2023-03-01T05:16:39;101065.00;;;-6.73;100.00
71195;BME280;58908;51.426;7.714;2023-03-01T05:19:07;101058.81;;;-6.78;100.00
71195;BME280;58908;51.426;7.714;2023-03-01T05:21:40;101055.13;;;-6.87;100.00
71195;BME280;58908;51.426;7.714;2023-03-01T05:24:26;101049.84;;;-6.92;100.00
71195;BME280;58908;51.426;7.714;2023-03-01T05:26:53;101043.03;;;-6.91;100.00
71195;BME280;58908;51.426;7.714;2023-03-01T05:29:20;101029.28;;;-6.93;100.00
71195;BME280;58908;51.426;7.714;2023-03-01T05:31:49;101035.25;;;-6.94;100.00
71195;BME280;58908;51.426;7.714;2023-03-01T05:34:17;101039.41;;;-6.97;100.00
71195;BME280;58908;51.426;7.714;2023-03-01T05:36:43;101043.78;;;-6.93;100.00
71195;BME280;58908;51.426;7.714;2023-03-01T05:39:10;101041.13;;;-6.96;100.00
71195;BME280;58908;51.426;7.714;2023-03-01T05:41:36;101048.81;;;-6.96;100.00
71195;BME280;58908;51.426;7.714;2023-03-01T05:44:02;101044.41;;;-7.00;100.00
71195;BME280;58908;51.426;7.714;2023-03-01T05:46:29;101049.53;;;-7.00;100.00
71195;BME280;58908;51.426;7.714;2023-03-01T05:48:56;101047.63;;;-7.06;100.00
71195;BME280;58908;51.426;7.714;2023-03-01T05:51:23;101046.72;;;-7.08;100.00
71195;BME280;58908;51.426;7.714;2023-03-01T05:53:49;101042.41;;;-7.09;100.00
71195;BME280;58908;51.426;7.714;2023-03-01T05:56:16;101049.13;;;-7.12;100.00
71195;BME280;58908;51.426;7.714;2023-03-01T05:58:42;101052.50;;;-7.13;100.00
71195;BME280;58908;51.426;7.714;2023-03-01T06:01:10;101043.84;;;-7.17;100.00
71195;BME280;58908;51.426;7.714;2023-03-01T06:03:37;101045.50;;;-7.19;100.00
71195;BME280;58908;51.426;7.714;2023-03-01T06:06:03;101046.31;;;-7.20;100.00
71195;BME280;58908;51.426;7.714;2023-03-01T06:08:31;101050.47;;;-7.23;100.00
71195;BME280;58908;51.426;7.714;2023-03-01T06:10:57;101055.81;;;-7.17;100.00
71195;BME280;58908;51.426;7.714;2023-03-01T06:13:23;101052.47;;;-7.15;100.00
71195;BME280;58908;51.426;7.714;2023-03-01T06:15:50;101052.41;;;-7.16;100.00
71195;BME280;58908;51.426;7.714;2023-03-01T06:18:16;101053.56;;;-7.08;100.00
71195;BME280;58908;51.426;7.714;2023-03-01T06:20:43;101058.78;;;-7.05;100.00
71195;BME280;58908;51.426;7.714;2023-03-01T06:23:09;101045.13;;;-7.04;100.00
71195;BME280;58908;51.426;7.714;2023-03-01T06:25:36;101047.13;;;-6.96;100.00
71195;BME280;58908;51.426;7.714;2023-03-01T06:28:03;101053.72;;;-7.04;100.00
71195;BME280;58908;51.426;7.714;2023-03-01T06:30:29;101054.56;;;-7.03;100.00
71195;BME280;58908;51.426;7.714;2023-03-01T06:32:55;101053.06;;;-6.97;100.00
71195;BME280;58908;51.426;7.714;2023-03-01T06:35:26;101054.13;;;-6.91;100.00
71195;BME280;58908;51.426;7.714;2023-03-01T06:37:54;101047.28;;;-6.92;100.00
71195;BME280;58908;51.426;7.714;2023-03-01T06:40:21;101040.41;;;-6.93;100.00
71195;BME280;58908;51.426;7.714;2023-03-01T06:42:49;101043.88;;;-6.91;100.00
71195;BME280;58908;51.426;7.714;2023-03-01T06:45:16;101031.94;;;-6.64;100.00
71195;BME280;58908;51.426;7.714;2023-03-01T06:47:43;101033.69;;;-6.63;100.00
71195;BME280;58908;51.426;7.714;2023-03-01T06:50:11;101031.03;;;-6.66;100.00
71195;BME280;58908;51.426;7.714;2023-03-01T06:52:38;101032.78;;;-6.65;100.00
71195;BME280;58908;51.426;7.714;2023-03-01T06:55:04;101031.94;;;-6.64;100.00
71195;BME280;58908;51.426;7.714;2023-03-01T06:57:31;101034.91;;;-6.50;100.00
71195;BME280;58908;51.426;7.714;2023-03-01T06:59:58;101029.25;;;-6.12;100.00
71195;BME280;58908;51.426;7.714;2023-03-01T07:02:24;101022.03;;;-5.32;100.00
71195;BME280;58908;51.426;7.714;2023-03-01T07:04:51;101029.03;;;-5.59;100.00
71195;BME280;58908;51.426;7.714;2023-03-01T07:07:17;101028.50;;;-5.77;100.00
71195;BME280;58908;51.426;7.714;2023-03-01T07:09:44;101027.84;;;-6.01;100.00
71195;BME280;58908;51.426;7.714;2023-03-01T07:12:10;101034.66;;;-6.03;100.00
71195;BME280;58908;51.426;7.714;2023-03-01T07:14:36;101025.97;;;-6.07;100.00
71195;BME280;58908;51.426;7.714;2023-03-01T07:17:04;101023.47;;;-6.05;100.00
71195;BME280;58908;51.426;7.714;2023-03-01T07:19:30;101020.72;;;-4.48;100.00
71195;BME280;58908;51.426;7.714;2023-03-01T07:21:56;101016.63;;;-2.57;100.00
71195;BME280;58908;51.426;7.714;2023-03-01T07:24:23;101012.00;;;-2.20;100.00
71195;BME280;58908;51.426;7.714;2023-03-01T07:26:49;101010.16;;;-1.65;100.00
71195;BME280;58908;51.426;7.714;2023-03-01T07:29:15;101000.31;;;-1.93;100.00
71195;BME280;58908;51.426;7.714;2023-03-01T07:31:42;100994.75;;;-1.51;100.00
71195;BME280;58908;51.426;7.714;2023-03-01T07:34:09;100996.81;;;-1.17;100.00
71195;BME280;58908;51.426;7.714;2023-03-01T07:36:36;100982.09;;;-1.23;100.00
71195;BME280;58908;51.426;7.714;2023-03-01T07:39:04;100994.28;;;-1.13;100.00
71195;BME280;58908;51.426;7.714;2023-03-01T07:41:30;100983.16;;;-1.04;100.00
71195;BME280;58908;51.426;7.714;2023-03-01T07:43:57;100981.34;;;-1.13;98.52
71195;BME280;58908;51.426;7.714;2023-03-01T07:46:23;100980.94;;;-0.59;96.87
71195;BME280;58908;51.426;7.714;2023-03-01T07:48:49;100982.50;;;-0.78;94.43
71195;BME280;58908;51.426;7.714;2023-03-01T07:51:17;100976.72;;;-0.38;94.04
71195;BME280;58908;51.426;7.714;2023-03-01T07:53:45;100979.50;;;-0.11;90.97
71195;BME280;58908;51.426;7.714;2023-03-01T07:56:12;100985.16;;;-0.69;91.04
71195;BME280;58908;51.426;7.714;2023-03-01T07:58:39;100980.50;;;0.24;90.79
71195;BME280;58908;51.426;7.714;2023-03-01T08:01:06;100976.72;;;-0.39;88.65
71195;BME280;58908;51.426;7.714;2023-03-01T08:03:32;100986.00;;;-0.70;89.38
71195;BME280;58908;51.426;7.714;2023-03-01T08:05:59;100988.78;;;-0.44;89.98
71195;BME280;58908;51.426;7.714;2023-03-01T08:08:27;100983.19;;;0.52;90.18
71195;BME280;58908;51.426;7.714;2023-03-01T08:10:55;100980.66;;;0.88;85.40
71195;BME280;58908;51.426;7.714;2023-03-01T08:13:22;100978.91;;;1.41;84.87
71195;BME280;58908;51.426;7.714;2023-03-01T08:15:48;100970.16;;;1.77;81.23
71195;BME280;58908;51.426;7.714;2023-03-01T08:18:14;100979.78;;;0.83;84.21
71195;BME280;58908;51.426;7.714;2023-03-01T08:20:41;100977.19;;;1.13;84.45
71195;BME280;58908;51.426;7.714;2023-03-01T08:23:07;100971.09;;;1.56;82.31
71195;BME280;58908;51.426;7.714;2023-03-01T08:25:35;100971.88;;;1.87;81.63
71195;BME280;58908;51.426;7.714;2023-03-01T08:28:01;100963.91;;;2.30;78.27
71195;BME280;58908;51.426;7.714;2023-03-01T08:30:27;100963.63;;;2.76;75.08
71195;BME280;58908;51.426;7.714;2023-03-01T08:32:53;100964.75;;;2.32;75.31
71195;BME280;58908;51.426;7.714;2023-03-01T08:35:20;100970.03;;;2.19;75.28
71195;BME280;58908;51.426;7.714;2023-03-01T08:37:46;100950.72;;;2.57;75.61
71195;BME280;58908;51.426;7.714;2023-03-01T08:40:13;100958.81;;;2.03;75.47
71195;BME280;58908;51.426;7.714;2023-03-01T08:42:41;100958.03;;;1.77;77.56
71195;BME280;58908;51.426;7.714;2023-03-01T08:45:09;100958.09;;;1.62;79.23
71195;BME280;58908;51.426;7.714;2023-03-01T08:47:35;100954.41;;;2.19;77.38
71195;BME280;58908;51.426;7.714;2023-03-01T08:50:02;100959.47;;;2.47;77.39
71195;BME280;58908;51.426;7.714;2023-03-01T08:52:28;100959.34;;;2.68;77.11
71195;BME280;58908;51.426;7.714;2023-03-01T08:54:55;100957.69;;;2.56;77.14
71195;BME280;58908;51.426;7.714;2023-03-01T08:57:21;100955.69;;;2.94;75.71
71195;BME280;58908;51.426;7.714;2023-03-01T08:59:49;100945.13;;;3.12;75.38
71195;BME280;58908;51.426;7.714;2023-03-01T09:02:16;100946.69;;;3.28;76.01
71195;BME280;58908;51.426;7.714;2023-03-01T09:04:44;100951.88;;;3.31;73.22
71195;BME280;58908;51.426;7.714;2023-03-01T09:07:10;100950.50;;;2.88;71.42
71195;BME280;58908;51.426;7.714;2023-03-01T09:09:36;100946.63;;;3.39;69.95
71195;BME280;58908;51.426;7.714;2023-03-01T09:12:03;100941.78;;;3.86;69.28
71195;BME280;58908;51.426;7.714;2023-03-01T09:14:29;100937.41;;;3.00;67.99
71195;BME280;58908;51.426;7.714;2023-03-01T09:16:57;100935.94;;;3.60;68.70
71195;BME280;58908;51.426;7.714;2023-03-01T09:19:23;100932.13;;;3.06;68.38
71195;BME280;58908;51.426;7.714;2023-03-01T09:21:49;100929.84;;;3.61;67.53
71195;BME280;58908;51.426;7.714;2023-03-01T09:24:18;100929.34;;;3.29;65.76
71195;BME280;58908;51.426;7.714;2023-03-01T09:26:45;100928.88;;;3.74;67.19
71195;BME280;58908;51.426;7.714;2023-03-01T09:29:12;100926.22;;;3.75;66.86
71195;BME280;58908;51.426;7.714;2023-03-01T09:31:39;100910.94;;;4.15;66.02
71195;BME280;58908;51.426;7.714;2023-03-01T09:34:06;100908.53;;;3.98;65.88
71195;BME280;58908;51.426;7.714;2023-03-01T09:36:33;100900.75;;;3.97;65.24
71195;BME280;58908;51.426;7.714;2023-03-01T09:39:00;100902.38;;;4.05;64.58
71195;BME280;58908;51.426;7.714;2023-03-01T09:41:30;100899.53;;;4.20;64.20
71195;BME280;58908;51.426;7.714;2023-03-01T09:44:03;100893.31;;;4.32;63.63
71195;BME280;58908;51.426;7.714;2023-03-01T09:46:32;100879.38;;;4.87;63.14
71195;BME280;58908;51.426;7.714;2023-03-01T09:49:04;100893.75;;;4.00;63.67
71195;BME280;58908;51.426;7.714;2023-03-01T09:51:34;100896.06;;;3.52;63.79
71195;BME280;58908;51.426;7.714;2023-03-01T09:54:02;100895.34;;;3.35;63.93
71195;BME280;58908;51.426;7.714;2023-03-01T09:56:30;100897.34;;;4.54;64.64
71195;BME280;58908;51.426;7.714;2023-03-01T09:58:59;100899.81;;;4.02;62.45
71195;BME280;58908;51.426;7.714;2023-03-01T10:01:33;100898.88;;;4.05;63.23
71195;BME280;58908;51.426;7.714;2023-03-01T10:04:04;100908.13;;;3.59;63.42
71195;BME280;58908;51.426;7.714;2023-03-01T10:06:33;100905.44;;;2.79;64.43
71195;BME280;58908;51.426;7.714;2023-03-01T10:09:00;100898.81;;;2.34;66.26
71195;BME280;58908;51.426;7.714;2023-03-01T10:11:28;100910.97;;;2.29;67.17
71195;BME280;58908;51.426;7.714;2023-03-01T10:13:58;100902.28;;;2.32;67.16
71195;BME280;58908;51.426;7.714;2023-03-01T10:16:28;100896.72;;;2.81;67.21
71195;BME280;58908;51.426;7.714;2023-03-01T10:18:59;100902.25;;;2.36;67.07
71195;BME280;58908;51.426;7.714;2023-03-01T10:21:26;100899.38;;;2.77;67.49
71195;BME280;58908;51.426;7.714;2023-03-01T10:23:55;100890.84;;;2.54;67.25
71195;BME280;58908;51.426;7.714;2023-03-01T10:26:27;100884.59;;;2.80;67.17
71195;BME280;58908;51.426;7.714;2023-03-01T10:29:00;100872.28;;;2.96;67.06
71195;BME280;58908;51.426;7.714;2023-03-01T10:31:37;100869.56;;;3.05;67.43
71195;BME280;58908;51.426;7.714;2023-03-01T10:34:07;100867.84;;;3.04;66.65
71195;BME280;58908;51.426;7.714;2023-03-01T10:36:34;100866.16;;;3.00;66.63
71195;BME280;58908;51.426;7.714;2023-03-01T10:39:01;100859.19;;;3.02;66.62
71195;BME280;58908;51.426;7.714;2023-03-01T10:41:37;100855.84;;;2.89;66.33
71195;BME280;58908;51.426;7.714;2023-03-01T10:44:10;100862.47;;;3.20;66.88
71195;BME280;58908;51.426;7.714;2023-03-01T10:46:59;100861.75;;;3.08;65.63
71195;BME280;58908;51.426;7.714;2023-03-01T10:49:25;100857.31;;;3.16;67.22
71195;BME280;58908;51.426;7.714;2023-03-01T10:51:52;100852.06;;;3.22;68.18
71195;BME280;58908;51.426;7.714;2023-03-01T10:54:21;100846.13;;;3.06;69.00
71195;BME280;58908;51.426;7.714;2023-03-01T10:56:50;100846.13;;;3.08;71.10
71195;BME280;58908;51.426;7.714;2023-03-01T10:59:27;100845.16;;;3.16;70.26
71195;BME280;58908;51.426;7.714;2023-03-01T11:02:04;100838.50;;;2.87;70.85
71195;BME280;58908;51.426;7.714;2023-03-01T11:04:39;100843.63;;;2.93;70.58
71195;BME280;58908;51.426;7.714;2023-03-01T11:07:07;100832.88;;;3.27;69.84
71195;BME280;58908;51.426;7.714;2023-03-01T11:09:35;100834.31;;;3.52;69.72
71195;BME280;58908;51.426;7.714;2023-03-01T11:12:05;100833.75;;;3.25;70.10
71195;BME280;58908;51.426;7.714;2023-03-01T11:14:39;100838.19;;;3.18;70.63
71195;BME280;58908;51.426;7.714;2023-03-01T11:17:12;100832.06;;;3.21;70.81
71195;BME280;58908;51.426;7.714;2023-03-01T11:19:41;100824.56;;;2.92;70.99
71195;BME280;58908;51.426;7.714;2023-03-01T11:22:11;100820.94;;;3.04;70.71
71195;BME280;58908;51.426;7.714;2023-03-01T11:24:40;100818.78;;;3.43;71.22
71195;BME280;58908;51.426;7.714;2023-03-01T11:27:17;100817.22;;;3.27;70.93
71195;BME280;58908;51.426;7.714;2023-03-01T11:29:44;100821.56;;;3.27;70.87
71195;BME280;58908;51.426;7.714;2023-03-01T11:32:16;100818.91;;;3.31;70.79
71195;BME280;58908;51.426;7.714;2023-03-01T11:34:44;100817.72;;;3.59;70.26
71195;BME280;58908;51.426;7.714;2023-03-01T11:37:15;100825.59;;;3.56;70.97
71195;BME280;58908;51.426;7.714;2023-03-01T11:39:51;100828.06;;;3.67;70.62
71195;BME280;58908;51.426;7.714;2023-03-01T11:42:19;100821.94;;;3.68;69.80
71195;BME280;58908;51.426;7.714;2023-03-01T11:44:47;100809.78;;;3.68;70.50
71195;BME280;58908;51.426;7.714;2023-03-01T11:47:17;100817.88;;;3.47;69.83
71195;BME280;58908;51.426;7.714;2023-03-01T11:52:30;100813.91;;;3.86;69.67
71195;BME280;58908;51.426;7.714;2023-03-01T11:55:05;100812.25;;;3.77;70.23
71195;BME280;58908;51.426;7.714;2023-03-01T11:57:41;100821.94;;;3.68;71.22
71195;BME280;58908;51.426;7.714;2023-03-01T12:00:19;100810.56;;;3.73;70.11
71195;BME280;58908;51.426;7.714;2023-03-01T12:05:41;100808.00;;;3.70;71.94
71195;BME280;58908;51.426;7.714;2023-03-01T12:08:12;100805.47;;;3.66;69.90
71195;BME280;58908;51.426;7.714;2023-03-01T12:10:44;100793.41;;;3.57;70.96
71195;BME280;58908;51.426;7.714;2023-03-01T12:13:22;100796.78;;;3.64;71.24
71195;BME280;58908;51.426;7.714;2023-03-01T12:16:06;100790.34;;;3.90;70.99
71195;BME280;58908;51.426;7.714;2023-03-01T12:18:43;100784.25;;;3.88;68.81
71195;BME280;58908;51.426;7.714;2023-03-01T12:21:18;100787.56;;;4.01;67.35
71195;BME280;58908;51.426;7.714;2023-03-01T12:24:03;100783.19;;;4.03;67.65
71195;BME280;58908;51.426;7.714;2023-03-01T12:26:35;100776.81;;;4.20;67.88
71195;BME280;58908;51.426;7.714;2023-03-01T12:29:05;100774.91;;;4.33;65.86
71195;BME280;58908;51.426;7.714;2023-03-01T12:31:45;100772.47;;;4.22;64.73
71195;BME280;58908;51.426;7.714;2023-03-01T12:34:25;100766.88;;;4.43;63.71
71195;BME280;58908;51.426;7.714;2023-03-01T12:37:11;100769.28;;;4.55;64.27
71195;BME280;58908;51.426;7.714;2023-03-01T12:39:43;100768.66;;;4.41;65.88
71195;BME280;58908;51.426;7.714;2023-03-01T12:42:15;100753.25;;;4.25;65.26
71195;BME280;58908;51.426;7.714;2023-03-01T12:44:52;100759.22;;;4.33;67.01
71195;BME280;58908;51.426;7.714;2023-03-01T12:47:23;100754.63;;;4.47;66.15
71195;BME280;58908;51.426;7.714;2023-03-01T12:49:54;100751.72;;;4.13;65.65
71195;BME280;58908;51.426;7.714;2023-03-01T12:52:23;100749.06;;;4.15;65.62
71195;BME280;58908;51.426;7.714;2023-03-01T12:54:54;100750.44;;;4.37;66.51
71195;BME280;58908;51.426;7.714;2023-03-01T12:57:25;100752.34;;;4.27;65.87
71195;BME280;58908;51.426;7.714;2023-03-01T12:59:58;100743.56;;;4.34;64.94